Portada
METAR-TAF:

METAR-TAF

Aeroports :

Luang Prabang, Laos

latitud: 19-53N, longitud: 102-08E, altitud: 305 m

Observació

L'informe es va fer fa 26 minuts, a les 12:00 UTC
Vent calma
Temperatura 35°C
Humitat 47%
Pressió 1004 hPa
Visibilitat 10 km o més
Escasses núvols a una alçada de 1900 ft

METAR: VLLB 251200Z 00000KT 9999 FEW019 35/22 Q1004 NOSIG

Hora: 19:26 (12:26 UTC)

Pronòstic

L'informe es va fer fa 1 hora i 26 minuts, a les 11:00 UTC
Pronòstic vàlid del 25 a les 12 UTC al 26 a les 12 UTC
Vent 4 kt del Sud-Est
Visibilitat 10 km o més
Núvols disperses a una alçada de 2000 ft
Núvols disperses a una alçada de 6000 ft

TAF: VLLB 251100Z 2512/2612 14004KT 9999 SCT020 SCT060

Observacions i pronòstics meteorològics de més de 4000 aeroports (METAR i TAF).

Les estacions disponibles són els punts grocs i vermells al mapa.

Posi el ratolí al punt desitjat per veure el nom de l'estació.

Feu clic per veure les observacions i els pronòstics meteorològics.

Per canviar el mapa: feu clic els botons verds amb una creu de color negre per apropar; al botó verd amb un guió per allunyar la imatge; o en les fletxes verdes per a mapes adjacents.


METAR-TAF: